createdAt,value
2022-09-28T00:00:59.824Z,18.63
2022-09-28T00:03:28.006Z,20.98
2022-09-28T00:06:01.273Z,18.20
2022-09-28T00:08:27.623Z,19.77
2022-09-28T00:10:58.013Z,19.77
2022-09-28T00:13:24.653Z,19.90
2022-09-28T00:16:01.278Z,18.85
2022-09-28T00:18:28.412Z,19.95
2022-09-28T00:21:12.847Z,19.80
2022-09-28T00:23:58.866Z,20.35
2022-09-28T00:26:26.477Z,21.27
2022-09-28T00:28:59.078Z,20.92
2022-09-28T00:31:26.923Z,22.58
2022-09-28T00:33:57.264Z,21.52
2022-09-28T00:38:58.808Z,24.63
2022-09-28T00:41:27.605Z,21.92
2022-09-28T00:44:26.004Z,22.10
2022-09-28T00:46:58.157Z,24.10
2022-09-28T00:49:43.850Z,24.10
2022-09-28T00:52:14.719Z,23.98
2022-09-28T00:54:43.238Z,22.15
2022-09-28T00:57:09.692Z,23.05
2022-09-28T00:59:36.133Z,21.65
2022-09-28T01:02:02.763Z,20.77
2022-09-28T01:04:30.937Z,21.10
2022-09-28T01:06:59.129Z,22.00
2022-09-28T01:09:27.611Z,22.27
2022-09-28T01:11:55.141Z,22.35
2022-09-28T01:14:25.566Z,22.88
2022-09-28T01:17:08.623Z,22.58
2022-09-28T01:20:05.876Z,21.92
2022-09-28T01:22:46.838Z,21.25
2022-09-28T01:25:13.176Z,26.10
2022-09-28T01:27:44.754Z,23.15
2022-09-28T01:30:15.998Z,23.48
2022-09-28T01:32:57.321Z,23.40
2022-09-28T01:35:27.678Z,24.95
2022-09-28T01:38:02.529Z,26.02
2022-09-28T01:40:32.269Z,26.23
2022-09-28T01:43:04.143Z,26.15
2022-09-28T01:45:37.033Z,25.67
2022-09-28T01:48:06.319Z,25.50
2022-09-28T01:50:38.246Z,27.67
2022-09-28T01:53:13.179Z,26.75
2022-09-28T01:55:47.901Z,25.83
2022-09-28T01:58:51.753Z,26.52
2022-09-28T02:01:24.939Z,29.23
2022-09-28T02:03:59.024Z,29.77
2022-09-28T02:06:31.909Z,28.17
2022-09-28T02:09:06.125Z,25.75
2022-09-28T02:11:37.182Z,29.20
2022-09-28T02:14:09.726Z,28.05
2022-09-28T02:16:47.989Z,34.28
2022-09-28T02:19:14.399Z,27.23
2022-09-28T02:21:52.885Z,27.73
2022-09-28T02:24:26.987Z,27.20
2022-09-28T02:26:58.983Z,26.20
2022-09-28T02:29:25.833Z,26.20
2022-09-28T02:31:52.718Z,27.20
2022-09-28T02:34:19.233Z,27.58
2022-09-28T02:36:47.013Z,26.00
2022-09-28T02:39:15.186Z,26.70
2022-09-28T02:42:05.839Z,25.80
2022-09-28T02:44:57.664Z,25.25
2022-09-28T02:47:29.715Z,24.75
2022-09-28T02:50:12.966Z,25.02
2022-09-28T02:52:48.948Z,28.13
2022-09-28T02:55:37.120Z,24.90
2022-09-28T02:58:27.587Z,23.00
2022-09-28T03:01:40.009Z,22.98
2022-09-28T03:04:15.995Z,27.92
2022-09-28T03:07:04.295Z,27.77
2022-09-28T03:09:56.343Z,24.52
2022-09-28T03:12:24.574Z,27.75
2022-09-28T03:15:12.304Z,27.02
2022-09-28T03:17:38.683Z,28.05
2022-09-28T03:20:05.710Z,25.70
2022-09-28T03:22:32.146Z,25.92
2022-09-28T03:24:58.495Z,25.55
2022-09-28T03:27:24.892Z,25.52
2022-09-28T03:29:51.218Z,26.73
2022-09-28T03:32:17.557Z,26.77
2022-09-28T03:34:43.939Z,32.55
2022-09-28T03:37:10.507Z,25.17
2022-09-28T03:39:36.954Z,25.98
2022-09-28T03:42:03.484Z,28.92
2022-09-28T03:44:29.822Z,29.38
2022-09-28T03:46:56.534Z,28.08
2022-09-28T03:49:22.891Z,37.50
2022-09-28T03:51:49.239Z,29.63
2022-09-28T03:54:15.562Z,30.35
2022-09-28T03:56:41.904Z,31.77
2022-09-28T03:59:08.272Z,37.47
2022-09-28T04:01:34.754Z,38.70
2022-09-28T04:04:01.383Z,42.38
2022-09-28T04:06:27.979Z,39.53
2022-09-28T04:08:54.576Z,40.17
2022-09-28T04:11:20.999Z,43.03
2022-09-28T04:13:50.498Z,42.47
2022-09-28T04:16:18.429Z,40.22
2022-09-28T04:18:44.956Z,40.58
2022-09-28T04:21:13.102Z,43.33
2022-09-28T04:23:40.048Z,45.03
2022-09-28T04:26:16.514Z,43.63
2022-09-28T04:29:06.305Z,45.53
2022-09-28T04:31:45.918Z,48.10
2022-09-28T04:34:14.882Z,51.13
2022-09-28T04:36:41.326Z,44.60
2022-09-28T04:39:07.662Z,48.85
2022-09-28T04:41:34.324Z,56.45
2022-09-28T04:44:00.861Z,47.78
2022-09-28T04:46:27.263Z,48.05
2022-09-28T04:48:53.636Z,49.08
2022-09-28T04:51:20.131Z,44.92
2022-09-28T04:53:46.819Z,49.92
2022-09-28T04:56:15.221Z,48.25
2022-09-28T04:58:41.689Z,46.42
2022-09-28T05:01:11.143Z,51.85
2022-09-28T05:03:37.920Z,44.67
2022-09-28T05:06:05.182Z,45.20
2022-09-28T05:08:31.572Z,43.33
2022-09-28T05:11:03.806Z,47.85
2022-09-28T05:13:31.506Z,46.55
2022-09-28T05:16:03.011Z,40.63
2022-09-28T05:18:31.546Z,46.45
2022-09-28T05:20:58.281Z,46.95
2022-09-28T05:23:24.654Z,41.00
2022-09-28T05:25:51.066Z,38.17
2022-09-28T05:28:26.036Z,53.20
2022-09-28T05:30:52.833Z,49.80
2022-09-28T05:33:19.212Z,42.65
2022-09-28T05:35:48.735Z,52.70
2022-09-28T05:38:17.455Z,54.20
2022-09-28T05:40:43.841Z,63.15
2022-09-28T05:43:10.597Z,43.50
2022-09-28T05:45:37.062Z,46.25
2022-09-28T05:48:03.671Z,48.17
2022-09-28T05:50:30.229Z,42.97
2022-09-28T05:53:09.915Z,52.83
2022-09-28T05:55:37.367Z,42.15
2022-09-28T05:58:06.469Z,40.22
2022-09-28T06:00:33.769Z,42.30
2022-09-28T06:03:06.684Z,45.15
2022-09-28T06:05:36.221Z,56.95
2022-09-28T06:08:05.171Z,124.55
2022-09-28T06:10:32.495Z,79.60
2022-09-28T06:12:59.433Z,114.97
2022-09-28T06:15:28.143Z,86.00
2022-09-28T06:18:02.394Z,52.55
2022-09-28T06:20:31.420Z,50.15
2022-09-28T06:22:58.081Z,84.97
2022-09-28T06:25:25.833Z,48.42
2022-09-28T06:28:01.204Z,44.67
2022-09-28T06:30:29.854Z,45.28
2022-09-28T06:32:57.994Z,50.55
2022-09-28T06:35:26.039Z,44.22
2022-09-28T06:37:53.615Z,44.58
2022-09-28T06:40:21.466Z,46.55
2022-09-28T06:43:14.894Z,44.53
2022-09-28T06:45:42.932Z,45.03
2022-09-28T06:48:10.642Z,66.63
2022-09-28T06:50:39.766Z,42.75
2022-09-28T06:53:09.579Z,43.25
2022-09-28T06:55:38.955Z,44.42
2022-09-28T06:58:07.892Z,41.53
2022-09-28T07:00:36.578Z,53.13
2022-09-28T07:03:05.141Z,51.38
2022-09-28T07:05:34.956Z,57.83
2022-09-28T07:08:02.020Z,79.25
2022-09-28T07:10:30.199Z,56.80
2022-09-28T07:12:58.143Z,50.38
2022-09-28T07:15:25.435Z,69.70
2022-09-28T07:18:03.238Z,45.92
2022-09-28T07:20:31.590Z,49.03
2022-09-28T07:23:11.696Z,52.95
2022-09-28T07:25:47.707Z,51.65
2022-09-28T07:28:14.361Z,51.83
2022-09-28T07:30:42.229Z,47.15
2022-09-28T07:33:12.512Z,50.05
2022-09-28T07:38:06.603Z,53.42
2022-09-28T07:40:53.101Z,46.80
2022-09-28T07:43:20.823Z,52.72
2022-09-28T07:45:49.332Z,50.88
2022-09-28T07:48:16.982Z,52.90
2022-09-28T07:50:48.164Z,47.60
2022-09-28T07:53:14.546Z,40.85
2022-09-28T07:55:40.927Z,49.17
2022-09-28T07:58:07.338Z,46.20
2022-09-28T08:00:34.359Z,47.78
2022-09-28T08:03:03.728Z,44.92
2022-09-28T08:05:35.815Z,47.25
2022-09-28T08:08:02.765Z,43.95
2022-09-28T08:10:29.276Z,44.83
2022-09-28T08:12:59.247Z,46.35
2022-09-28T08:15:29.517Z,44.03
2022-09-28T08:17:59.087Z,46.10
2022-09-28T08:21:06.654Z,43.13
2022-09-28T08:23:33.088Z,37.05
2022-09-28T08:25:59.505Z,38.22
2022-09-28T08:28:26.232Z,34.53
2022-09-28T08:30:52.676Z,37.10
2022-09-28T08:33:21.349Z,37.05
2022-09-28T08:35:48.314Z,35.95
2022-09-28T08:38:15.249Z,31.67
2022-09-28T08:40:57.957Z,33.40
2022-09-28T08:43:48.319Z,33.67
2022-09-28T08:49:41.903Z,32.40
2022-09-28T08:52:23.508Z,31.48
2022-09-28T08:55:02.225Z,29.98
2022-09-28T08:57:42.264Z,31.23
2022-09-28T09:00:17.499Z,27.13
2022-09-28T09:02:46.919Z,33.30
2022-09-28T09:05:19.054Z,27.35
2022-09-28T09:08:03.518Z,31.45
2022-09-28T09:10:30.015Z,25.75
2022-09-28T09:13:23.533Z,26.48
2022-09-28T09:16:19.448Z,25.05
2022-09-28T09:18:54.460Z,24.55
2022-09-28T09:21:42.191Z,25.50
2022-09-28T09:24:29.473Z,24.50
2022-09-28T09:27:33.793Z,25.02
2022-09-28T09:30:11.406Z,25.13
2022-09-28T09:33:05.097Z,25.20
2022-09-28T09:35:55.605Z,24.98
2022-09-28T09:38:40.156Z,25.88
2022-09-28T09:41:18.633Z,25.10
2022-09-28T09:44:10.191Z,24.13
2022-09-28T09:46:57.604Z,23.10
2022-09-28T09:49:46.562Z,23.27
2022-09-28T09:52:24.204Z,25.83
2022-09-28T09:55:05.564Z,22.02
2022-09-28T09:57:51.150Z,21.77
2022-09-28T10:00:18.415Z,22.05
2022-09-28T10:02:48.257Z,21.65
2022-09-28T10:05:24.041Z,25.33
2022-09-28T10:08:08.728Z,20.02
2022-09-28T10:10:38.713Z,18.30
2022-09-28T10:13:05.240Z,17.95
2022-09-28T10:15:33.641Z,17.20
2022-09-28T10:18:06.547Z,21.25
2022-09-28T10:20:37.674Z,18.75
2022-09-28T10:23:07.135Z,16.58
2022-09-28T10:25:37.891Z,31.77
2022-09-28T10:28:06.756Z,15.40
2022-09-28T10:30:44.076Z,15.52
2022-09-28T10:33:34.002Z,18.35
2022-09-28T10:36:02.083Z,17.08
2022-09-28T10:38:30.299Z,17.23
2022-09-28T10:41:01.907Z,15.10
2022-09-28T10:43:39.659Z,18.88
2022-09-28T10:46:09.461Z,15.35
2022-09-28T10:48:51.768Z,16.30
2022-09-28T10:51:18.264Z,17.00
2022-09-28T10:54:00.531Z,14.90
2022-09-28T10:56:36.087Z,13.15
2022-09-28T10:59:22.351Z,13.00
2022-09-28T11:01:55.789Z,12.85
2022-09-28T11:04:26.493Z,12.75
2022-09-28T11:06:56.450Z,14.52
2022-09-28T11:09:34.795Z,14.50
2022-09-28T11:12:06.145Z,12.68
2022-09-28T11:17:38.691Z,13.48
2022-09-28T11:20:24.792Z,12.25
2022-09-28T11:23:15.659Z,12.40
2022-09-28T11:25:42.708Z,11.85
2022-09-28T11:28:22.132Z,12.77
2022-09-28T11:30:52.896Z,12.82
2022-09-28T11:33:34.791Z,12.80
2022-09-28T11:36:07.678Z,12.20
2022-09-28T11:38:40.125Z,11.50
2022-09-28T11:41:27.862Z,11.02
2022-09-28T11:44:36.214Z,14.63
2022-09-28T11:47:24.710Z,12.82
2022-09-28T11:49:57.401Z,12.05
2022-09-28T11:52:38.751Z,12.38
2022-09-28T11:55:31.246Z,13.05
2022-09-28T11:58:08.784Z,13.10
2022-09-28T12:00:42.310Z,11.73
2022-09-28T12:03:16.237Z,12.30
2022-09-28T12:05:52.035Z,11.93
2022-09-28T12:08:28.006Z,12.23
2022-09-28T12:11:17.788Z,13.48
2022-09-28T12:13:48.204Z,11.95
2022-09-28T12:16:53.129Z,11.75
2022-09-28T12:19:37.990Z,11.10
2022-09-28T12:22:16.068Z,11.30
2022-09-28T12:24:46.076Z,11.18
2022-09-28T12:30:20.928Z,11.40
2022-09-28T12:32:55.846Z,11.80
2022-09-28T12:35:31.465Z,10.77
2022-09-28T12:38:28.436Z,11.52
2022-09-28T12:41:13.031Z,10.68
2022-09-28T12:43:45.426Z,11.13
2022-09-28T12:46:53.842Z,11.23
2022-09-28T12:50:36.576Z,11.38
2022-09-28T12:53:03.071Z,11.45
2022-09-28T12:56:08.455Z,11.38
2022-09-28T12:58:42.593Z,11.25
2022-09-28T13:01:14.798Z,11.52
2022-09-28T13:04:02.615Z,11.77
2022-09-28T13:06:39.122Z,11.68
2022-09-28T13:09:23.881Z,11.88
2022-09-28T13:11:55.506Z,11.30
2022-09-28T13:14:54.972Z,11.32
2022-09-28T13:17:39.682Z,10.95
2022-09-28T13:20:27.475Z,11.13
2022-09-28T13:23:21.301Z,11.23
2022-09-28T13:25:54.669Z,10.95
2022-09-28T13:28:26.168Z,11.02
2022-09-28T13:30:55.249Z,11.40
2022-09-28T13:33:37.277Z,11.05
2022-09-28T13:36:36.547Z,11.82
2022-09-28T13:39:04.277Z,11.13
2022-09-28T13:41:37.754Z,12.30
2022-09-28T13:44:13.904Z,12.85
2022-09-28T13:47:02.254Z,12.30
2022-09-28T13:50:02.527Z,12.27
2022-09-28T13:52:34.865Z,12.20
2022-09-28T13:55:23.191Z,11.93
2022-09-28T13:58:06.604Z,12.68
2022-09-28T14:00:47.472Z,12.13
2022-09-28T14:03:27.577Z,11.25
2022-09-28T14:08:44.414Z,12.10
2022-09-28T14:11:34.184Z,11.57
2022-09-28T14:14:13.870Z,12.18
2022-09-28T14:16:42.106Z,11.35
2022-09-28T14:19:10.639Z,11.60
2022-09-28T14:22:05.010Z,11.60
2022-09-28T14:24:40.093Z,11.05
2022-09-28T14:27:06.367Z,11.65
2022-09-28T14:29:36.460Z,11.63
2022-09-28T14:34:43.699Z,10.75
2022-09-28T14:37:43.439Z,11.30
2022-09-28T14:40:39.072Z,11.43
2022-09-28T14:43:26.739Z,11.02
2022-09-28T14:46:10.831Z,11.63
2022-09-28T14:49:03.667Z,11.57
2022-09-28T14:51:30.166Z,12.27
2022-09-28T14:54:01.135Z,13.25
2022-09-28T14:56:38.955Z,11.13
2022-09-28T14:59:06.493Z,11.85
2022-09-28T15:01:36.159Z,13.70
2022-09-28T15:04:04.966Z,11.10
2022-09-28T15:06:48.447Z,12.07
2022-09-28T15:09:28.666Z,12.02
2022-09-28T15:14:55.035Z,11.40
2022-09-28T15:17:24.732Z,11.32
2022-09-28T15:20:03.590Z,11.57
2022-09-28T15:22:30.310Z,12.35
2022-09-28T15:25:02.487Z,13.25
2022-09-28T15:27:36.955Z,12.15
2022-09-28T15:30:22.905Z,12.50
2022-09-28T15:32:49.882Z,11.77
2022-09-28T15:35:21.981Z,12.02
2022-09-28T15:37:52.620Z,10.88
2022-09-28T15:40:29.430Z,11.85
2022-09-28T15:42:59.213Z,12.27
2022-09-28T15:45:30.705Z,12.05
2022-09-28T15:48:26.053Z,12.25
2022-09-28T15:50:58.651Z,11.73
2022-09-28T15:53:25.404Z,11.57
2022-09-28T15:55:51.883Z,12.60
2022-09-28T15:58:24.233Z,13.18
2022-09-28T16:01:12.097Z,12.45
2022-09-28T16:03:41.797Z,12.07
2022-09-28T16:06:09.864Z,11.90
2022-09-28T16:08:36.158Z,12.07
2022-09-28T16:11:10.801Z,11.38
2022-09-28T16:13:54.202Z,12.25
2022-09-28T16:16:26.310Z,10.77
2022-09-28T16:18:55.496Z,11.48
2022-09-28T16:21:45.322Z,11.57
2022-09-28T16:24:28.213Z,11.50
2022-09-28T16:27:03.435Z,11.23
2022-09-28T16:29:39.962Z,11.98
2022-09-28T16:32:25.002Z,12.85
2022-09-28T16:35:11.638Z,11.85
2022-09-28T16:37:42.596Z,17.98
2022-09-28T16:40:10.179Z,14.57
2022-09-28T16:42:37.592Z,12.98
2022-09-28T16:45:05.278Z,15.43
2022-09-28T16:47:34.049Z,12.40
2022-09-28T16:50:02.343Z,12.55
2022-09-28T16:52:47.443Z,13.52
2022-09-28T16:55:38.752Z,14.40
2022-09-28T16:58:04.655Z,12.70
2022-09-28T17:00:31.786Z,13.27
2022-09-28T17:02:58.495Z,13.40
2022-09-28T17:05:25.652Z,13.00
2022-09-28T17:08:01.609Z,13.32
2022-09-28T17:10:56.133Z,12.90
2022-09-28T17:13:31.366Z,13.88
2022-09-28T17:15:58.397Z,13.50
2022-09-28T17:18:25.229Z,19.70
2022-09-28T17:20:55.000Z,16.13
2022-09-28T17:23:21.766Z,15.90
2022-09-28T17:25:48.372Z,18.90
2022-09-28T17:28:20.598Z,16.70
2022-09-28T17:30:47.547Z,17.45
2022-09-28T17:33:14.665Z,22.40
2022-09-28T17:35:43.027Z,19.55
2022-09-28T17:38:12.142Z,17.67
2022-09-28T17:40:38.955Z,17.25
2022-09-28T17:43:06.074Z,21.40
2022-09-28T17:45:38.957Z,24.38
2022-09-28T17:48:09.043Z,19.98
2022-09-28T17:50:35.823Z,17.80
2022-09-28T17:53:08.355Z,18.27
2022-09-28T17:55:36.664Z,18.58
2022-09-28T17:58:23.343Z,23.50
2022-09-28T18:00:51.463Z,20.30
2022-09-28T18:03:20.839Z,27.05
2022-09-28T18:05:49.945Z,26.47
2022-09-28T18:08:21.106Z,30.75
2022-09-28T18:10:47.606Z,26.40
2022-09-28T18:13:14.661Z,32.30
2022-09-28T18:15:41.554Z,32.90
2022-09-28T18:18:09.713Z,33.33
2022-09-28T18:20:36.767Z,32.30
2022-09-28T18:23:03.598Z,35.30
2022-09-28T18:25:30.002Z,31.92
2022-09-28T18:27:57.501Z,27.88
2022-09-28T18:30:24.743Z,29.13
2022-09-28T18:32:51.160Z,26.27
2022-09-28T18:35:22.611Z,30.05
2022-09-28T18:37:49.818Z,28.25
2022-09-28T18:40:16.267Z,31.63
2022-09-28T18:42:42.731Z,25.83
2022-09-28T18:45:14.860Z,32.00
2022-09-28T18:47:41.247Z,28.42
2022-09-28T18:50:08.082Z,32.00
2022-09-28T18:52:39.067Z,32.65
2022-09-28T18:55:06.520Z,31.50
2022-09-28T18:57:33.827Z,33.75
2022-09-28T19:00:01.778Z,32.63
2022-09-28T19:02:28.242Z,28.00
2022-09-28T19:04:54.635Z,31.50
2022-09-28T19:07:21.227Z,29.40
2022-09-28T19:09:47.600Z,33.88
2022-09-28T19:12:14.793Z,30.10
2022-09-28T19:14:41.209Z,33.30
2022-09-28T19:17:07.636Z,31.23
2022-09-28T19:19:34.044Z,41.63
2022-09-28T19:22:00.464Z,36.47
2022-09-28T19:24:27.067Z,35.47
2022-09-28T19:26:53.545Z,37.08
2022-09-28T19:29:20.482Z,40.05
2022-09-28T19:31:47.353Z,39.30
2022-09-28T19:34:14.425Z,36.25
2022-09-28T19:36:41.556Z,35.55
2022-09-28T19:39:07.918Z,43.50
2022-09-28T19:41:44.382Z,39.85
2022-09-28T19:44:21.029Z,38.65
2022-09-28T19:46:47.478Z,38.10
2022-09-28T19:49:19.555Z,37.65
2022-09-28T19:52:19.013Z,46.80
2022-09-28T19:54:38.010Z,36.55
2022-09-28T19:57:08.562Z,45.05
2022-09-28T19:59:36.939Z,49.80
2022-09-28T20:02:04.919Z,42.10
2022-09-28T20:04:31.324Z,50.63
2022-09-28T20:06:57.744Z,47.45
2022-09-28T20:09:24.143Z,55.75
2022-09-28T20:11:51.817Z,54.70
2022-09-28T20:14:23.438Z,54.00
2022-09-28T20:16:52.294Z,48.67
2022-09-28T20:19:21.407Z,56.47
2022-09-28T20:21:48.414Z,56.85
2022-09-28T20:24:16.743Z,56.40
2022-09-28T20:26:44.347Z,53.10
2022-09-28T20:29:10.687Z,61.92
2022-09-28T20:31:37.822Z,54.78
2022-09-28T20:34:05.297Z,54.38
2022-09-28T20:36:32.069Z,52.45
2022-09-28T20:39:01.766Z,58.15
2022-09-28T20:41:34.686Z,66.50
2022-09-28T20:44:05.019Z,48.30
2022-09-28T20:46:32.171Z,53.03
2022-09-28T20:48:59.929Z,52.65
2022-09-28T20:51:26.623Z,53.65
2022-09-28T20:53:55.585Z,52.28
2022-09-28T20:56:24.711Z,50.72
2022-09-28T20:58:51.706Z,53.83
2022-09-28T21:01:25.983Z,47.83
2022-09-28T21:03:54.783Z,55.88
2022-09-28T21:06:23.761Z,48.75
2022-09-28T21:08:50.396Z,58.65
2022-09-28T21:11:19.457Z,50.72
2022-09-28T21:13:46.024Z,52.55
2022-09-28T21:16:14.965Z,53.17
2022-09-28T21:18:42.018Z,50.33
2022-09-28T21:21:12.455Z,49.35
2022-09-28T21:23:39.180Z,54.80
2022-09-28T21:26:10.616Z,61.30
2022-09-28T21:28:38.180Z,53.65
2022-09-28T21:31:06.893Z,48.65
2022-09-28T21:33:33.291Z,51.00
2022-09-28T21:36:04.618Z,49.97
2022-09-28T21:38:31.228Z,47.33
2022-09-28T21:40:59.056Z,48.45
2022-09-28T21:43:27.307Z,49.15
2022-09-28T21:45:54.979Z,50.47
2022-09-28T21:48:22.933Z,46.15
2022-09-28T21:51:00.549Z,45.47
2022-09-28T21:53:29.534Z,43.35
2022-09-28T21:55:59.404Z,48.03
2022-09-28T21:58:28.715Z,49.45
2022-09-28T22:01:14.686Z,44.45
2022-09-28T22:03:42.463Z,46.53
2022-09-28T22:06:08.942Z,48.28
2022-09-28T22:08:36.308Z,56.17
2022-09-28T22:11:11.651Z,45.40
2022-09-28T22:13:43.226Z,43.67
2022-09-28T22:16:11.262Z,41.30
2022-09-28T22:18:37.972Z,40.53
2022-09-28T22:21:13.571Z,40.90
2022-09-28T22:23:40.502Z,40.08
2022-09-28T22:26:11.017Z,43.28
2022-09-28T22:28:38.317Z,45.30
2022-09-28T22:31:04.892Z,45.30
2022-09-28T22:33:31.528Z,48.90
2022-09-28T22:35:57.881Z,42.97
2022-09-28T22:38:24.782Z,43.45
2022-09-28T22:40:54.420Z,35.85
2022-09-28T22:43:23.389Z,41.60
2022-09-28T22:45:50.204Z,37.53
2022-09-28T22:48:16.594Z,40.90
2022-09-28T22:50:50.211Z,38.78
2022-09-28T22:53:16.871Z,34.38
2022-09-28T22:55:43.381Z,37.28
2022-09-28T22:58:09.891Z,35.42
2022-09-28T23:00:36.478Z,41.03
2022-09-28T23:03:02.989Z,38.55
2022-09-28T23:05:29.419Z,39.20
2022-09-28T23:07:55.794Z,38.38
2022-09-28T23:10:22.194Z,38.03
2022-09-28T23:12:48.664Z,38.92
2022-09-28T23:15:15.331Z,37.15
2022-09-28T23:17:41.692Z,36.72
2022-09-28T23:20:08.482Z,40.95
2022-09-28T23:22:34.860Z,48.58
2022-09-28T23:25:01.346Z,35.20
2022-09-28T23:27:27.704Z,39.42
2022-09-28T23:29:54.358Z,40.60
2022-09-28T23:32:20.690Z,36.17
2022-09-28T23:34:47.033Z,34.13
2022-09-28T23:37:13.373Z,37.85
2022-09-28T23:39:39.799Z,40.15
2022-09-28T23:42:06.216Z,33.70
2022-09-28T23:44:33.176Z,37.65
2022-09-28T23:46:59.664Z,35.28
2022-09-28T23:49:26.076Z,42.85
2022-09-28T23:51:52.401Z,39.05
2022-09-28T23:54:18.783Z,36.13
2022-09-28T23:56:45.182Z,35.75
2022-09-28T23:59:11.653Z,36.10
